Time,TemperatureF,DewpointF,PressureIn,WindDirection,WindDirectionDegrees,WindSpeedMPH,WindSpeedGustMPH,Humidity,HourlyPrecipIn,Conditions,Clouds,dailyrainin,SoftwareType,DateUTC
2013-01-27 00:00:00,16.3,9.8,30.36,NNE,22,0.0,0.0,75,0.00,,,0.00,WUHU21623XXSP,2013-01-27 05:00:00,
2013-01-27 00:02:00,16.3,9.8,30.36,NNE,22,0.0,0.0,75,0.00,,,0.00,WUHU21623XXSP,2013-01-27 05:02:00,
2013-01-27 00:03:00,16.3,9.8,30.36,NNE,22,0.0,0.0,75,0.00,,,0.00,WUHU21623XXSP,2013-01-27 05:03:00,
2013-01-27 00:08:00,16.5,10.0,30.36,NNE,22,0.0,0.0,75,0.00,,,0.00,WUHU21623XXSP,2013-01-27 05:08:00,
2013-01-27 00:13:00,16.5,10.0,30.36,NNE,22,0.0,0.0,75,0.00,,,0.00,WUHU21623XXSP,2013-01-27 05:13:00,
2013-01-27 00:18:00,16.7,10.2,30.36,North,0,0.0,0.0,75,0.00,,,0.00,WUHU21623XXSP,2013-01-27 05:18:00,
2013-01-27 00:23:00,16.9,10.4,30.36,NNW,337,0.0,0.0,75,0.00,,,0.00,WUHU21623XXSP,2013-01-27 05:23:00,
2013-01-27 00:28:00,16.9,10.4,30.36,NNW,337,0.0,0.0,75,0.00,,,0.00,WUHU21623XXSP,2013-01-27 05:28:00,
2013-01-27 00:33:00,16.9,10.4,30.36,NNE,22,0.0,0.0,75,0.00,,,0.00,WUHU21623XXSP,2013-01-27 05:33:00,
2013-01-27 00:38:00,16.9,10.4,30.36,NNW,337,0.0,0.0,75,0.00,,,0.00,WUHU21623XXSP,2013-01-27 05:38:00,
2013-01-27 00:43:00,17.1,10.6,30.36,NNW,337,0.0,0.0,75,0.00,,,0.00,WUHU21623XXSP,2013-01-27 05:43:00,
2013-01-27 00:48:00,17.2,10.7,30.36,North,0,0.0,0.0,75,0.00,,,0.00,WUHU21623XXSP,2013-01-27 05:48:00,
2013-01-27 00:53:00,17.2,10.7,30.36,NNE,22,0.0,0.0,75,0.00,,,0.00,WUHU21623XXSP,2013-01-27 05:53:00,
2013-01-27 00:58:00,17.2,10.7,30.36,North,0,0.0,0.0,75,0.00,,,0.00,WUHU21623XXSP,2013-01-27 05:58:00,
2013-01-27 01:03:00,17.2,10.7,30.37,NNW,337,0.0,0.0,75,0.00,,,0.00,WUHU21623XXSP,2013-01-27 06:03:00,
2013-01-27 01:08:00,17.2,10.7,30.36,NNW,337,0.0,0.0,75,0.00,,,0.00,WUHU21623XXSP,2013-01-27 06:08:00,
2013-01-27 01:13:00,17.4,10.9,30.37,North,0,0.0,0.0,75,0.00,,,0.00,WUHU21623XXSP,2013-01-27 06:13:00,
2013-01-27 01:19:00,17.4,10.9,30.37,NW,315,0.0,0.0,75,0.00,,,0.00,WUHU21623XXSP,2013-01-27 06:19:00,
2013-01-27 01:24:00,17.4,10.9,30.38,North,0,0.0,0.0,75,0.00,,,0.00,WUHU21623XXSP,2013-01-27 06:24:00,
2013-01-27 01:29:00,17.4,10.9,30.37,NW,315,0.0,0.0,75,0.00,,,0.00,WUHU21623XXSP,2013-01-27 06:29:00,
2013-01-27 01:34:00,17.8,11.2,30.38,NNW,337,0.0,0.0,75,0.00,,,0.00,WUHU21623XXSP,2013-01-27 06:34:00,
2013-01-27 01:39:00,17.8,11.2,30.38,NW,315,0.0,0.0,75,0.00,,,0.00,WUHU21623XXSP,2013-01-27 06:39:00,
2013-01-27 01:44:00,17.8,11.5,30.38,North,0,0.0,0.0,76,0.00,,,0.00,WUHU21623XXSP,2013-01-27 06:44:00,
2013-01-27 01:49:00,18.0,11.7,30.38,North,0,0.0,0.0,76,0.00,,,0.00,WUHU21623XXSP,2013-01-27 06:49:00,
2013-01-27 01:54:00,18.1,11.8,30.38,North,0,0.0,0.0,76,0.00,,,0.00,WUHU21623XXSP,2013-01-27 06:54:00,
2013-01-27 01:59:00,18.1,11.8,30.39,North,0,0.0,0.0,76,0.00,,,0.00,WUHU21623XXSP,2013-01-27 06:59:00,
2013-01-27 02:04:00,18.3,12.0,30.39,NNW,337,0.0,0.0,76,0.00,,,0.00,WUHU21623XXSP,2013-01-27 07:04:00,
2013-01-27 02:09:00,18.3,12.0,30.39,NW,315,0.0,0.0,76,0.00,,,0.00,WUHU21623XXSP,2013-01-27 07:09:00,
2013-01-27 02:14:00,18.3,12.0,30.39,NNW,337,0.0,0.0,76,0.00,,,0.00,WUHU21623XXSP,2013-01-27 07:14:00,
2013-01-27 02:19:00,18.3,12.0,30.39,NNW,337,0.0,0.0,76,0.00,,,0.00,WUHU21623XXSP,2013-01-27 07:19:00,
2013-01-27 02:24:00,18.3,12.0,30.39,North,0,0.0,0.0,76,0.00,,,0.00,WUHU21623XXSP,2013-01-27 07:24:00,
2013-01-27 02:29:00,18.3,12.0,30.40,North,0,0.0,0.0,76,0.00,,,0.00,WUHU21623XXSP,2013-01-27 07:29:00,
2013-01-27 02:34:00,18.3,12.0,30.40,North,0,0.0,0.0,76,0.00,,,0.00,WUHU21623XXSP,2013-01-27 07:34:00,
2013-01-27 02:39:00,18.3,12.0,30.40,North,0,0.0,0.0,76,0.00,,,0.00,WUHU21623XXSP,2013-01-27 07:39:00,
2013-01-27 02:44:00,18.5,12.2,30.40,North,0,0.0,0.0,76,0.00,,,0.00,WUHU21623XXSP,2013-01-27 07:44:00,
2013-01-27 02:49:00,18.5,12.2,30.40,NNW,337,0.0,0.0,76,0.00,,,0.00,WUHU21623XXSP,2013-01-27 07:49:00,
2013-01-27 02:54:00,18.5,12.2,30.41,North,0,0.0,0.0,76,0.00,,,0.00,WUHU21623XXSP,2013-01-27 07:54:00,
2013-01-27 02:59:00,18.5,12.2,30.40,North,0,0.0,0.0,76,0.00,,,0.00,WUHU21623XXSP,2013-01-27 07:59:00,
2013-01-27 03:04:00,18.5,12.2,30.40,North,0,0.0,0.0,76,0.00,,,0.00,WUHU21623XXSP,2013-01-27 08:04:00,
2013-01-27 03:09:00,18.5,12.2,30.40,North,0,0.0,0.0,76,0.00,,,0.00,WUHU21623XXSP,2013-01-27 08:09:00,
2013-01-27 03:14:00,18.5,12.2,30.40,North,0,0.0,0.0,76,0.00,,,0.00,WUHU21623XXSP,2013-01-27 08:14:00,
2013-01-27 03:19:00,18.5,12.2,30.41,North,0,0.0,0.0,76,0.00,,,0.00,WUHU21623XXSP,2013-01-27 08:19:00,
2013-01-27 03:24:00,18.3,12.0,30.41,North,0,0.0,0.0,76,0.00,,,0.00,WUHU21623XXSP,2013-01-27 08:24:00,
2013-01-27 03:29:00,18.3,12.0,30.40,North,0,0.0,0.0,76,0.00,,,0.00,WUHU21623XXSP,2013-01-27 08:29:00,
2013-01-27 03:34:00,18.3,12.0,30.41,North,0,0.0,0.0,76,0.00,,,0.00,WUHU21623XXSP,2013-01-27 08:34:00,
2013-01-27 03:39:00,18.3,12.0,30.41,North,0,0.0,0.0,76,0.00,,,0.00,WUHU21623XXSP,2013-01-27 08:39:00,
2013-01-27 03:44:00,18.3,12.0,30.41,NNW,337,0.0,0.0,76,0.00,,,0.00,WUHU21623XXSP,2013-01-27 08:44:00,
2013-01-27 03:49:00,18.3,12.0,30.41,NNE,22,0.0,0.0,76,0.00,,,0.00,WUHU21623XXSP,2013-01-27 08:49:00,
2013-01-27 03:54:00,18.1,11.8,30.41,North,0,0.0,0.0,76,0.00,,,0.00,WUHU21623XXSP,2013-01-27 08:54:00,
2013-01-27 03:59:00,18.1,11.8,30.41,NNW,337,0.0,0.0,76,0.00,,,0.00,WUHU21623XXSP,2013-01-27 08:59:00,
2013-01-27 04:04:00,18.0,11.7,30.41,North,0,0.0,0.0,76,0.00,,,0.00,WUHU21623XXSP,2013-01-27 09:04:00,
2013-01-27 04:09:00,18.0,11.7,30.41,NNE,22,0.0,0.0,76,0.00,,,0.00,WUHU21623XXSP,2013-01-27 09:09:00,
2013-01-27 04:14:00,17.8,11.5,30.41,North,0,0.0,0.0,76,0.00,,,0.00,WUHU21623XXSP,2013-01-27 09:14:00,
2013-01-27 04:19:00,17.8,11.5,30.41,NNE,22,0.0,0.0,76,0.00,,,0.00,WUHU21623XXSP,2013-01-27 09:19:00,
2013-01-27 04:24:00,17.8,11.5,30.42,NNE,22,0.0,0.0,76,0.00,,,0.00,WUHU21623XXSP,2013-01-27 09:24:00,
2013-01-27 04:29:00,17.8,11.5,30.42,NNE,22,0.0,0.0,76,0.00,,,0.00,WUHU21623XXSP,2013-01-27 09:29:00,
2013-01-27 04:34:00,17.6,11.3,30.42,NNE,22,0.0,0.0,76,0.00,,,0.00,WUHU21623XXSP,2013-01-27 09:34:00,
2013-01-27 04:39:00,17.4,11.2,30.43,NNE,22,0.0,0.0,76,0.00,,,0.00,WUHU21623XXSP,2013-01-27 09:39:00,
2013-01-27 04:44:00,17.4,11.2,30.43,NE,45,0.0,0.0,76,0.00,,,0.00,WUHU21623XXSP,2013-01-27 09:44:00,
2013-01-27 04:49:00,17.4,11.2,30.43,NNE,22,0.0,0.0,76,0.00,,,0.00,WUHU21623XXSP,2013-01-27 09:49:00,
2013-01-27 04:54:00,17.2,11.0,30.43,NNE,22,0.0,0.0,76,0.00,,,0.00,WUHU21623XXSP,2013-01-27 09:54:00,
2013-01-27 04:59:00,16.9,10.7,30.43,NNE,22,0.0,0.0,76,0.00,,,0.00,WUHU21623XXSP,2013-01-27 09:59:00,
2013-01-27 05:04:00,16.7,10.5,30.43,NE,45,0.0,0.0,76,0.00,,,0.00,WUHU21623XXSP,2013-01-27 10:04:00,
2013-01-27 05:09:00,16.3,10.1,30.43,NNE,22,0.0,0.0,76,0.00,,,0.00,WUHU21623XXSP,2013-01-27 10:09:00,
2013-01-27 05:15:00,16.2,10.0,30.43,NE,45,0.0,0.0,76,0.00,,,0.00,WUHU21623XXSP,2013-01-27 10:15:00,
2013-01-27 05:20:00,16.0,9.5,30.44,NE,45,0.0,0.0,75,0.00,,,0.00,WUHU21623XXSP,2013-01-27 10:20:00,
2013-01-27 05:25:00,15.6,9.1,30.44,NNE,22,0.0,0.0,75,0.00,,,0.00,WUHU21623XXSP,2013-01-27 10:25:00,
2013-01-27 05:30:00,15.6,9.1,30.44,NE,45,0.0,0.0,75,0.00,,,0.00,WUHU21623XXSP,2013-01-27 10:30:00,
2013-01-27 05:35:00,15.4,8.9,30.44,NE,45,0.0,0.0,75,0.00,,,0.00,WUHU21623XXSP,2013-01-27 10:35:00,
2013-01-27 05:40:00,15.3,8.8,30.44,NNE,22,0.0,0.0,75,0.00,,,0.00,WUHU21623XXSP,2013-01-27 10:40:00,
2013-01-27 05:45:00,15.1,8.6,30.44,NNE,22,0.0,0.0,75,0.00,,,0.00,WUHU21623XXSP,2013-01-27 10:45:00,
2013-01-27 05:50:00,14.9,8.4,30.44,NNE,22,0.0,0.0,75,0.00,,,0.00,WUHU21623XXSP,2013-01-27 10:50:00,
2013-01-27 05:55:00,14.7,8.2,30.44,NNE,22,0.0,0.0,75,0.00,,,0.00,WUHU21623XXSP,2013-01-27 10:55:00,
2013-01-27 06:00:00,14.5,8.0,30.44,NE,45,0.0,0.0,75,0.00,,,0.00,WUHU21623XXSP,2013-01-27 11:00:00,
2013-01-27 06:05:00,14.4,7.9,30.44,NE,45,0.0,0.0,75,0.00,,,0.00,WUHU21623XXSP,2013-01-27 11:05:00,
2013-01-27 06:10:00,14.2,7.8,30.45,NE,45,0.0,0.0,75,0.00,,,0.00,WUHU21623XXSP,2013-01-27 11:10:00,
2013-01-27 06:15:00,13.8,7.4,30.45,NE,45,0.0,0.0,75,0.00,,,0.00,WUHU21623XXSP,2013-01-27 11:15:00,
2013-01-27 06:20:00,13.8,7.4,30.45,SSE,157,0.0,0.0,75,0.00,,,0.00,WUHU21623XXSP,2013-01-27 11:20:00,
2013-01-27 06:25:00,13.6,7.5,30.46,SSE,157,0.0,0.0,76,0.00,,,0.00,WUHU21623XXSP,2013-01-27 11:25:00,
2013-01-27 06:30:00,13.6,7.5,30.46,SSE,157,0.0,0.0,76,0.00,,,0.00,WUHU21623XXSP,2013-01-27 11:30:00,
2013-01-27 06:35:00,13.3,7.2,30.46,SSE,157,0.0,0.0,76,0.00,,,0.00,WUHU21623XXSP,2013-01-27 11:35:00,
2013-01-27 06:40:00,13.1,6.7,30.46,SSE,157,0.0,0.0,75,0.00,,,0.00,WUHU21623XXSP,2013-01-27 11:40:00,
2013-01-27 06:45:00,12.2,5.8,30.46,SE,135,0.0,0.0,75,0.00,,,0.00,WUHU21623XXSP,2013-01-27 11:45:00,
2013-01-27 06:50:00,11.3,4.9,30.47,SE,135,0.0,0.0,75,0.00,,,0.00,WUHU21623XXSP,2013-01-27 11:50:00,
2013-01-27 06:55:00,10.6,4.0,30.47,SE,135,0.0,0.0,74,0.00,,,0.00,WUHU21623XXSP,2013-01-27 11:55:00,
2013-01-27 07:00:00,10.0,3.4,30.47,SE,135,0.0,0.0,74,0.00,,,0.00,WUHU21623XXSP,2013-01-27 12:00:00,
2013-01-27 07:05:00,9.1,2.5,30.47,SE,135,0.0,0.0,74,0.00,,,0.00,WUHU21623XXSP,2013-01-27 12:05:00,
2013-01-27 07:10:00,8.4,1.6,30.47,SE,135,0.0,0.0,73,0.00,,,0.00,WUHU21623XXSP,2013-01-27 12:10:00,
2013-01-27 07:15:00,7.7,0.9,30.47,SE,135,0.0,0.0,73,0.00,,,0.00,WUHU21623XXSP,2013-01-27 12:15:00,
2013-01-27 07:20:00,6.8,0.0,30.47,SE,135,0.0,0.0,73,0.00,,,0.00,WUHU21623XXSP,2013-01-27 12:20:00,
2013-01-27 07:25:00,6.1,-0.7,30.48,SE,135,0.0,0.0,73,0.00,,,0.00,WUHU21623XXSP,2013-01-27 12:25:00,
2013-01-27 07:30:00,5.2,-1.8,30.48,SE,135,0.0,0.0,72,0.00,,,0.00,WUHU21623XXSP,2013-01-27 12:30:00,
2013-01-27 07:35:00,4.6,-2.4,30.48,East,90,0.0,0.0,72,0.00,,,0.00,WUHU21623XXSP,2013-01-27 12:35:00,
2013-01-27 07:40:00,4.6,-2.1,30.49,ESE,112,0.0,0.0,73,0.00,,,0.00,WUHU21623XXSP,2013-01-27 12:40:00,
2013-01-27 07:45:00,5.2,-1.3,30.49,ESE,112,0.0,0.0,74,0.00,,,0.00,WUHU21623XXSP,2013-01-27 12:45:00,
2013-01-27 07:50:00,6.1,-0.4,30.49,ESE,112,0.0,0.0,74,0.00,,,0.00,WUHU21623XXSP,2013-01-27 12:50:00,
2013-01-27 07:55:00,7.2,1.0,30.49,East,90,0.0,0.0,75,0.00,,,0.00,WUHU21623XXSP,2013-01-27 12:55:00,
2013-01-27 08:00:00,8.2,1.9,30.49,East,90,0.0,0.0,75,0.00,,,0.00,WUHU21623XXSP,2013-01-27 13:00:00,
2013-01-27 08:05:00,9.1,3.1,30.49,East,90,0.0,0.0,76,0.00,,,0.00,WUHU21623XXSP,2013-01-27 13:05:00,
2013-01-27 08:10:00,9.7,3.7,30.49,East,90,0.0,0.0,76,0.00,,,0.00,WUHU21623XXSP,2013-01-27 13:10:00,
2013-01-27 08:15:00,10.2,4.2,30.49,East,90,0.0,0.0,76,0.00,,,0.00,WUHU21623XXSP,2013-01-27 13:15:00,
2013-01-27 08:20:00,10.6,4.5,30.49,East,90,0.0,0.0,76,0.00,,,0.00,WUHU21623XXSP,2013-01-27 13:20:00,
2013-01-27 08:25:00,10.8,4.7,30.49,East,90,0.0,0.0,76,0.00,,,0.00,WUHU21623XXSP,2013-01-27 13:25:00,
2013-01-27 08:30:00,10.2,3.9,30.49,East,90,0.0,0.0,75,0.00,,,0.00,WUHU21623XXSP,2013-01-27 13:30:00,
2013-01-27 08:35:00,9.7,3.4,30.50,East,90,0.0,0.0,75,0.00,,,0.00,WUHU21623XXSP,2013-01-27 13:35:00,
2013-01-27 08:40:00,9.1,2.5,30.50,East,90,0.0,0.0,74,0.00,,,0.00,WUHU21623XXSP,2013-01-27 13:40:00,
2013-01-27 08:45:00,9.0,2.4,30.51,East,90,0.0,0.0,74,0.00,,,0.00,WUHU21623XXSP,2013-01-27 13:45:00,
2013-01-27 08:50:00,8.8,2.2,30.51,East,90,0.0,0.0,74,0.00,,,0.00,WUHU21623XXSP,2013-01-27 13:50:00,
2013-01-27 08:55:00,8.6,2.0,30.51,East,90,0.0,0.0,74,0.00,,,0.00,WUHU21623XXSP,2013-01-27 13:55:00,
2013-01-27 09:00:00,8.8,2.2,30.51,East,90,0.0,0.0,74,0.00,,,0.00,WUHU21623XXSP,2013-01-27 14:00:00,
2013-01-27 09:05:00,9.1,2.5,30.51,East,90,0.0,0.0,74,0.00,,,0.00,WUHU21623XXSP,2013-01-27 14:05:00,
2013-01-27 09:10:00,9.5,2.9,30.51,East,90,0.0,0.0,74,0.00,,,0.00,WUHU21623XXSP,2013-01-27 14:10:00,
2013-01-27 09:15:00,10.2,3.6,30.51,SSE,157,0.0,0.0,74,0.00,,,0.00,WUHU21623XXSP,2013-01-27 14:15:00,
2013-01-27 09:20:00,11.1,4.8,30.51,SSE,157,0.0,0.0,75,0.00,,,0.00,WUHU21623XXSP,2013-01-27 14:20:00,
2013-01-27 09:25:00,12.0,5.6,30.51,SSE,157,0.0,0.0,75,0.00,,,0.00,WUHU21623XXSP,2013-01-27 14:25:00,
2013-01-27 09:30:00,12.7,6.3,30.51,SSE,157,0.0,0.0,75,0.00,,,0.00,WUHU21623XXSP,2013-01-27 14:30:00,
2013-01-27 09:35:00,13.6,7.2,30.51,SSE,157,0.0,0.0,75,0.00,,,0.00,WUHU21623XXSP,2013-01-27 14:35:00,
2013-01-27 09:40:00,14.2,7.8,30.51,South,180,0.0,0.0,75,0.00,,,0.00,WUHU21623XXSP,2013-01-27 14:40:00,
2013-01-27 09:45:00,15.1,8.3,30.52,SW,225,0.0,0.0,74,0.00,,,0.00,WUHU21623XXSP,2013-01-27 14:45:00,
2013-01-27 09:50:00,15.6,8.8,30.52,SW,225,0.0,0.0,74,0.00,,,0.00,WUHU21623XXSP,2013-01-27 14:50:00,
2013-01-27 09:55:00,16.3,9.5,30.52,SSW,202,0.0,0.0,74,0.00,,,0.00,WUHU21623XXSP,2013-01-27 14:55:00,
2013-01-27 10:00:00,16.9,10.1,30.52,SSW,202,0.0,0.0,74,0.00,,,0.00,WUHU21623XXSP,2013-01-27 15:00:00,
2013-01-27 10:05:00,17.8,10.6,30.52,South,180,0.0,0.0,73,0.00,,,0.00,WUHU21623XXSP,2013-01-27 15:05:00,
2013-01-27 10:10:00,18.0,10.8,30.53,SE,135,0.0,0.0,73,0.00,,,0.00,WUHU21623XXSP,2013-01-27 15:10:00,
2013-01-27 10:15:00,18.3,10.8,30.53,ENE,67,0.0,0.0,72,0.00,,,0.00,WUHU21623XXSP,2013-01-27 15:15:00,
2013-01-27 10:20:00,19.0,11.5,30.53,SSE,157,0.0,0.0,72,0.00,,,0.00,WUHU21623XXSP,2013-01-27 15:20:00,
2013-01-27 10:25:00,19.4,11.9,30.53,SSW,202,0.0,0.0,72,0.00,,,0.00,WUHU21623XXSP,2013-01-27 15:25:00,
2013-01-27 10:30:00,19.8,12.0,30.53,WSW,247,0.0,0.0,71,0.00,,,0.00,WUHU21623XXSP,2013-01-27 15:30:00,
2013-01-27 10:35:00,20.1,12.2,30.53,WSW,247,0.0,0.0,71,0.00,,,0.00,WUHU21623XXSP,2013-01-27 15:35:00,
2013-01-27 10:40:00,20.3,12.1,30.53,WSW,247,0.0,0.0,70,0.00,,,0.00,WUHU21623XXSP,2013-01-27 15:40:00,
2013-01-27 10:45:00,20.5,12.3,30.53,SW,225,0.0,0.0,70,0.00,,,0.00,WUHU21623XXSP,2013-01-27 15:45:00,
2013-01-27 10:50:00,20.8,12.6,30.53,West,270,0.0,0.0,70,0.00,,,0.00,WUHU21623XXSP,2013-01-27 15:50:00,
2013-01-27 10:55:00,21.0,12.5,30.53,WSW,247,0.0,0.0,69,0.00,,,0.00,WUHU21623XXSP,2013-01-27 15:55:00,
2013-01-27 11:00:00,21.4,12.9,30.53,NNW,337,0.0,0.0,69,0.00,,,0.00,WUHU21623XXSP,2013-01-27 16:00:00,
2013-01-27 11:05:00,21.6,13.1,30.52,NNW,337,0.0,0.0,69,0.00,,,0.00,WUHU21623XXSP,2013-01-27 16:05:00,
2013-01-27 11:10:00,21.9,13.0,30.52,NW,315,0.0,0.0,68,0.00,,,0.00,WUHU21623XXSP,2013-01-27 16:10:00,
2013-01-27 11:15:00,22.1,13.2,30.53,NW,315,0.0,0.0,68,0.00,,,0.00,WUHU21623XXSP,2013-01-27 16:15:00,
2013-01-27 11:20:00,22.5,13.6,30.53,NNW,337,4.3,4.5,68,0.00,,,0.00,WUHU21623XXSP,2013-01-27 16:20:00,
2013-01-27 11:25:00,22.6,13.3,30.53,West,266,2.4,5.1,67,0.00,,,0.00,WUHU21623XXSP,2013-01-27 16:25:00,
2013-01-27 11:30:00,22.8,13.5,30.53,North,0,4.9,5.6,67,0.00,,,0.00,WUHU21623XXSP,2013-01-27 16:30:00,
2013-01-27 11:35:00,22.8,13.5,30.52,NNE,22,2.7,5.6,67,0.00,,,0.00,WUHU21623XXSP,2013-01-27 16:35:00,
2013-01-27 11:40:00,22.8,13.5,30.52,West,267,1.4,5.1,67,0.00,,,0.00,WUHU21623XXSP,2013-01-27 16:40:00,
2013-01-27 11:45:00,22.8,13.2,30.52,SW,225,2.0,3.8,66,0.00,,,0.00,WUHU21623XXSP,2013-01-27 16:45:00,
2013-01-27 11:50:00,23.2,13.6,30.52,North,0,2.7,4.0,66,0.00,,,0.00,WUHU21623XXSP,2013-01-27 16:50:00,
2013-01-27 11:55:00,23.4,13.8,30.51,NNE,22,3.4,4.0,66,0.00,,,0.00,WUHU21623XXSP,2013-01-27 16:55:00,
2013-01-27 12:00:00,23.4,13.4,30.51,NE,43,1.6,4.0,65,0.00,,,0.00,WUHU21623XXSP,2013-01-27 17:00:00,
2013-01-27 12:05:00,23.4,13.4,30.51,North,0,2.2,4.0,65,0.00,,,0.00,WUHU21623XXSP,2013-01-27 17:05:00,
2013-01-27 12:10:00,23.5,13.5,30.51,NNW,337,3.1,3.6,65,0.00,,,0.00,WUHU21623XXSP,2013-01-27 17:10:00,
2013-01-27 12:15:00,23.7,13.7,30.50,NNW,342,3.2,6.0,65,0.00,,,0.00,WUHU21623XXSP,2013-01-27 17:15:00,
2013-01-27 12:20:00,23.7,13.4,30.51,WSW,258,2.7,6.0,64,0.00,,,0.00,WUHU21623XXSP,2013-01-27 17:20:00,
2013-01-27 12:25:00,24.1,13.7,30.51,North,353,4.1,5.4,64,0.00,,,0.00,WUHU21623XXSP,2013-01-27 17:25:00,
2013-01-27 12:30:00,24.1,13.4,30.50,North,351,1.9,6.0,63,0.00,,,0.00,WUHU21623XXSP,2013-01-27 17:30:00,
2013-01-27 12:35:00,24.4,13.7,30.50,NNW,334,2.8,6.0,63,0.00,,,0.00,WUHU21623XXSP,2013-01-27 17:35:00,
2013-01-27 12:40:00,24.4,13.7,30.50,NW,323,2.5,5.6,63,0.00,,,0.00,WUHU21623XXSP,2013-01-27 17:40:00,
2013-01-27 12:45:00,24.6,13.5,30.50,West,276,2.9,5.8,62,0.00,,,0.00,WUHU21623XXSP,2013-01-27 17:45:00,
2013-01-27 12:50:00,24.6,13.1,30.50,NNW,339,3.6,5.8,61,0.00,,,0.00,WUHU21623XXSP,2013-01-27 17:50:00,
2013-01-27 12:55:00,24.6,13.1,30.49,NNW,337,3.8,5.8,61,0.00,,,0.00,WUHU21623XXSP,2013-01-27 17:55:00,
2013-01-27 13:00:00,24.6,13.1,30.49,ESE,112,3.8,4.9,61,0.00,,,0.00,WUHU21623XXSP,2013-01-27 18:00:00,
2013-01-27 13:05:00,24.6,13.1,30.49,WSW,241,4.9,6.9,61,0.00,,,0.00,WUHU21623XXSP,2013-01-27 18:05:00,
2013-01-27 13:10:00,24.6,12.7,30.49,NNW,327,1.4,6.9,60,0.00,,,0.00,WUHU21623XXSP,2013-01-27 18:10:00,
2013-01-27 13:15:00,25.0,13.1,30.49,SSW,202,3.6,6.5,60,0.00,,,0.00,WUHU21623XXSP,2013-01-27 18:15:00,
2013-01-27 13:20:00,25.0,13.1,30.48,WSW,254,2.8,6.9,60,0.00,,,0.00,WUHU21623XXSP,2013-01-27 18:20:00,
2013-01-27 13:25:00,25.2,12.9,30.48,WSW,237,3.3,6.9,59,0.00,,,0.00,WUHU21623XXSP,2013-01-27 18:25:00,
2013-01-27 13:30:00,25.3,13.0,30.49,SSW,202,3.6,6.5,59,0.00,,,0.00,WUHU21623XXSP,2013-01-27 18:30:00,
2013-01-27 13:35:00,25.3,13.0,30.48,NW,315,4.3,8.9,59,0.00,,,0.00,WUHU21623XXSP,2013-01-27 18:35:00,
2013-01-27 13:40:00,25.3,13.0,30.48,SW,225,5.8,8.9,59,0.00,,,0.00,WUHU21623XXSP,2013-01-27 18:40:00,
2013-01-27 13:45:00,25.3,13.0,30.48,NW,315,3.6,6.3,59,0.00,,,0.00,WUHU21623XXSP,2013-01-27 18:45:00,
2013-01-27 13:50:00,25.3,12.6,30.48,WSW,247,3.6,6.3,58,0.00,,,0.00,WUHU21623XXSP,2013-01-27 18:50:00,
2013-01-27 13:55:00,25.5,12.8,30.48,WNW,300,3.3,5.6,58,0.00,,,0.00,WUHU21623XXSP,2013-01-27 18:55:00,
2013-01-27 14:00:00,25.3,13.0,30.49,WSW,247,3.4,6.0,59,0.00,,,0.00,WUHU21623XXSP,2013-01-27 19:00:00,
2013-01-27 14:05:00,25.5,12.8,30.49,NNW,336,3.3,6.0,58,0.00,,,0.00,WUHU21623XXSP,2013-01-27 19:05:00,
2013-01-27 14:10:00,25.5,12.8,30.49,North,0,2.7,6.0,58,0.00,,,0.00,WUHU21623XXSP,2013-01-27 19:10:00,
2013-01-27 14:15:00,25.5,12.8,30.49,NNW,337,3.1,6.0,58,0.00,,,0.00,WUHU21623XXSP,2013-01-27 19:15:00,
2013-01-27 14:20:00,25.5,12.8,30.50,NNW,331,3.4,4.5,58,0.00,,,0.00,WUHU21623XXSP,2013-01-27 19:20:00,
2013-01-27 14:25:00,25.5,12.8,30.50,NW,315,2.0,6.0,58,0.00,,,0.00,WUHU21623XXSP,2013-01-27 19:25:00,
2013-01-27 14:30:00,25.5,12.8,30.50,NNW,331,3.3,6.9,58,0.00,,,0.00,WUHU21623XXSP,2013-01-27 19:30:00,
2013-01-27 14:35:00,25.2,12.1,30.51,NNW,334,3.3,6.9,57,0.00,,,0.00,WUHU21623XXSP,2013-01-27 19:35:00,
2013-01-27 14:40:00,25.3,12.6,30.51,West,270,2.5,6.7,58,0.00,,,0.00,WUHU21623XXSP,2013-01-27 19:40:00,
2013-01-27 14:45:00,25.5,12.8,30.50,NW,325,3.5,5.4,58,0.00,,,0.00,WUHU21623XXSP,2013-01-27 19:45:00,
2013-01-27 14:50:00,25.5,12.8,30.49,NW,315,2.7,5.4,58,0.00,,,0.00,WUHU21623XXSP,2013-01-27 19:50:00,
2013-01-27 14:55:00,25.3,12.6,30.49,NNW,337,5.4,5.4,58,0.00,,,0.00,WUHU21623XXSP,2013-01-27 19:55:00,
2013-01-27 15:00:00,25.3,12.2,30.49,North,350,1.8,5.4,57,0.00,,,0.00,WUHU21623XXSP,2013-01-27 20:00:00,
2013-01-27 15:05:00,25.3,12.6,30.49,West,270,0.0,3.8,58,0.00,,,0.00,WUHU21623XXSP,2013-01-27 20:05:00,
2013-01-27 15:10:00,25.3,12.6,30.48,WSW,247,4.7,6.3,58,0.00,,,0.00,WUHU21623XXSP,2013-01-27 20:10:00,
2013-01-27 15:15:00,25.3,12.6,30.48,NNW,346,2.3,6.3,58,0.00,,,0.00,WUHU21623XXSP,2013-01-27 20:15:00,
2013-01-27 15:20:00,25.0,11.9,30.48,NNW,337,1.8,4.7,57,0.00,,,0.00,WUHU21623XXSP,2013-01-27 20:20:00,
2013-01-27 15:25:00,25.0,12.3,30.48,WSW,247,0.0,2.7,58,0.00,,,0.00,WUHU21623XXSP,2013-01-27 20:25:00,
2013-01-27 15:30:00,25.2,12.1,30.49,NW,315,1.5,4.7,57,0.00,,,0.00,WUHU21623XXSP,2013-01-27 20:30:00,
2013-01-27 15:35:00,25.0,11.9,30.49,WSW,247,2.5,4.7,57,0.00,,,0.00,WUHU21623XXSP,2013-01-27 20:35:00,
2013-01-27 15:40:00,24.4,11.4,30.49,NW,315,2.3,4.5,57,0.00,,,0.00,WUHU21623XXSP,2013-01-27 20:40:00,
2013-01-27 15:45:00,24.1,11.5,30.49,NW,315,0.0,3.6,58,0.00,,,0.00,WUHU21623XXSP,2013-01-27 20:45:00,
2013-01-27 15:50:00,23.5,10.9,30.49,NNW,337,2.7,4.0,58,0.00,,,0.00,WUHU21623XXSP,2013-01-27 20:50:00,
2013-01-27 15:55:00,23.2,10.6,30.49,NNW,337,3.1,4.5,58,0.00,,,0.00,WUHU21623XXSP,2013-01-27 20:55:00,
2013-01-27 16:00:00,23.0,10.8,30.49,NW,315,2.5,4.5,59,0.00,,,0.00,WUHU21623XXSP,2013-01-27 21:00:00,
2013-01-27 16:05:00,22.8,10.6,30.50,SW,225,1.6,3.8,59,0.00,,,0.00,WUHU21623XXSP,2013-01-27 21:05:00,
2013-01-27 16:10:00,22.8,11.0,30.49,NW,315,2.2,2.5,60,0.00,,,0.00,WUHU21623XXSP,2013-01-27 21:10:00,
2013-01-27 16:16:00,22.8,11.0,30.49,NW,315,2.5,3.6,60,0.00,,,0.00,WUHU21623XXSP,2013-01-27 21:16:00,
2013-01-27 16:21:00,23.0,11.2,30.49,WNW,292,0.8,3.6,60,0.00,,,0.00,WUHU21623XXSP,2013-01-27 21:21:00,
2013-01-27 16:27:00,23.2,11.4,30.49,NNW,337,1.8,2.7,60,0.00,,,0.00,WUHU21623XXSP,2013-01-27 21:27:00,
2013-01-27 16:32:00,23.4,11.6,30.49,North,0,2.2,3.1,60,0.00,,,0.00,WUHU21623XXSP,2013-01-27 21:32:00,
2013-01-27 16:37:00,23.4,11.6,30.49,North,0,0.0,3.1,60,0.00,,,0.00,WUHU21623XXSP,2013-01-27 21:37:00,
2013-01-27 16:42:00,23.4,11.6,30.48,North,0,0.0,2.7,60,0.00,,,0.00,WUHU21623XXSP,2013-01-27 21:42:00,
2013-01-27 16:47:00,23.2,11.4,30.49,North,0,0.0,0.0,60,0.00,,,0.00,WUHU21623XXSP,2013-01-27 21:47:00,
2013-01-27 16:52:00,22.5,11.1,30.48,North,0,0.0,0.0,61,0.00,,,0.00,WUHU21623XXSP,2013-01-27 21:52:00,
2013-01-27 16:57:00,21.7,10.4,30.48,North,0,0.0,0.0,61,0.00,,,0.00,WUHU21623XXSP,2013-01-27 21:57:00,
2013-01-27 17:02:00,20.5,8.8,30.48,North,0,0.0,0.0,60,0.00,,,0.00,WUHU21623XXSP,2013-01-27 22:02:00,
2013-01-27 17:07:00,19.2,7.6,30.48,North,0,0.0,0.0,60,0.00,,,0.00,WUHU21623XXSP,2013-01-27 22:07:00,
2013-01-27 17:12:00,18.5,7.3,30.48,North,0,0.0,0.0,61,0.00,,,0.00,WUHU21623XXSP,2013-01-27 22:12:00,
2013-01-27 17:17:00,18.0,7.2,30.48,North,0,0.0,0.0,62,0.00,,,0.00,WUHU21623XXSP,2013-01-27 22:17:00,
2013-01-27 17:22:00,17.4,7.0,30.48,North,0,0.0,0.0,63,0.00,,,0.00,WUHU21623XXSP,2013-01-27 22:22:00,
2013-01-27 17:27:00,16.9,6.5,30.47,North,0,0.0,0.0,63,0.00,,,0.00,WUHU21623XXSP,2013-01-27 22:27:00,
2013-01-27 17:33:00,16.7,6.7,30.47,North,0,0.0,0.0,64,0.00,,,0.00,WUHU21623XXSP,2013-01-27 22:33:00,
2013-01-27 17:37:00,16.3,6.6,30.47,NE,45,0.0,0.0,65,0.00,,,0.00,WUHU21623XXSP,2013-01-27 22:37:00,
2013-01-27 17:42:00,15.6,6.0,30.48,NE,45,2.7,2.9,65,0.00,,,0.00,WUHU21623XXSP,2013-01-27 22:42:00,
2013-01-27 17:47:00,15.1,5.8,30.47,NE,45,2.7,2.9,66,0.00,,,0.00,WUHU21623XXSP,2013-01-27 22:47:00,
2013-01-27 17:52:00,14.9,5.6,30.47,NE,45,0.0,3.4,66,0.00,,,0.00,WUHU21623XXSP,2013-01-27 22:52:00,
2013-01-27 17:57:00,14.7,5.8,30.47,NE,45,0.0,3.4,67,0.00,,,0.00,WUHU21623XXSP,2013-01-27 22:57:00,
2013-01-27 18:02:00,14.7,5.8,30.47,NE,45,0.0,0.0,67,0.00,,,0.00,WUHU21623XXSP,2013-01-27 23:02:00,
2013-01-27 18:07:00,14.7,6.1,30.47,NE,45,0.0,0.0,68,0.00,,,0.00,WUHU21623XXSP,2013-01-27 23:07:00,
2013-01-27 18:12:00,14.9,6.3,30.47,NE,45,0.0,0.0,68,0.00,,,0.00,WUHU21623XXSP,2013-01-27 23:12:00,
2013-01-27 18:17:00,15.3,7.0,30.47,NE,45,0.0,0.0,69,0.00,,,0.00,WUHU21623XXSP,2013-01-27 23:17:00,
2013-01-27 18:22:00,15.4,7.1,30.47,NE,45,0.0,0.0,69,0.00,,,0.00,WUHU21623XXSP,2013-01-27 23:22:00,
2013-01-27 18:27:00,15.4,7.1,30.47,NE,45,0.0,0.0,69,0.00,,,0.00,WUHU21623XXSP,2013-01-27 23:27:00,
2013-01-27 18:32:00,15.4,7.1,30.46,NE,45,0.0,0.0,69,0.00,,,0.00,WUHU21623XXSP,2013-01-27 23:32:00,
2013-01-27 18:37:00,15.4,7.1,30.46,NE,45,0.0,0.0,69,0.00,,,0.00,WUHU21623XXSP,2013-01-27 23:37:00,
2013-01-27 18:43:00,15.1,6.8,30.46,NE,45,0.0,0.0,69,0.00,,,0.00,WUHU21623XXSP,2013-01-27 23:43:00,
2013-01-27 18:47:00,14.7,6.4,30.46,NE,45,0.0,0.0,69,0.00,,,0.00,WUHU21623XXSP,2013-01-27 23:47:00,
2013-01-27 18:52:00,14.5,6.2,30.46,NE,45,0.0,0.0,69,0.00,,,0.00,WUHU21623XXSP,2013-01-27 23:52:00,
2013-01-27 18:57:00,14.4,6.1,30.45,NE,45,0.0,0.0,69,0.00,,,0.00,WUHU21623XXSP,2013-01-27 23:57:00,
2013-01-27 19:02:00,14.2,5.9,30.45,NE,45,0.0,0.0,69,0.00,,,0.00,WUHU21623XXSP,2013-01-28 00:02:00,
2013-01-27 19:07:00,14.2,5.9,30.45,SE,135,1.2,4.3,69,0.00,,,0.00,WUHU21623XXSP,2013-01-28 00:07:00,
2013-01-27 19:12:00,14.2,6.3,30.45,SE,135,1.5,4.3,70,0.00,,,0.00,WUHU21623XXSP,2013-01-28 00:12:00,
2013-01-27 19:17:00,14.2,6.3,30.45,SE,135,1.3,4.0,70,0.00,,,0.00,WUHU21623XXSP,2013-01-28 00:17:00,
2013-01-27 19:22:00,14.2,6.3,30.44,SE,135,2.2,4.0,70,0.00,,,0.00,WUHU21623XXSP,2013-01-28 00:22:00,
2013-01-27 19:27:00,14.4,6.8,30.44,SE,133,1.8,3.4,71,0.00,,,0.00,WUHU21623XXSP,2013-01-28 00:27:00,
2013-01-27 19:33:00,14.5,6.9,30.44,SE,135,2.0,3.4,71,0.00,,,0.00,WUHU21623XXSP,2013-01-28 00:33:00,
2013-01-27 19:38:00,14.7,7.0,30.44,SE,125,2.1,3.6,71,0.00,,,0.00,WUHU21623XXSP,2013-01-28 00:38:00,
2013-01-27 19:43:00,14.9,7.2,30.45,SE,135,1.4,4.5,71,0.00,,,0.00,WUHU21623XXSP,2013-01-28 00:43:00,
2013-01-27 19:48:00,14.7,7.0,30.45,SE,135,0.0,4.5,71,0.00,,,0.00,WUHU21623XXSP,2013-01-28 00:48:00,
2013-01-27 19:53:00,14.7,7.0,30.45,ESE,112,1.9,2.9,71,0.00,,,0.00,WUHU21623XXSP,2013-01-28 00:53:00,
2013-01-27 19:58:00,14.5,6.9,30.44,SSE,155,2.8,4.9,71,0.00,,,0.00,WUHU21623XXSP,2013-01-28 00:58:00,
2013-01-27 20:03:00,14.4,6.8,30.45,SE,135,0.0,4.9,71,0.00,,,0.00,WUHU21623XXSP,2013-01-28 01:03:00,
2013-01-27 20:08:00,14.0,6.4,30.45,SE,135,0.0,0.0,71,0.00,,,0.00,WUHU21623XXSP,2013-01-28 01:08:00,
2013-01-27 20:13:00,13.8,6.2,30.45,SE,135,0.0,0.0,71,0.00,,,0.00,WUHU21623XXSP,2013-01-28 01:13:00,
2013-01-27 20:18:00,13.8,6.2,30.46,SE,135,0.0,1.1,71,0.00,,,0.00,WUHU21623XXSP,2013-01-28 01:18:00,
2013-01-27 20:23:00,14.2,6.6,30.45,SE,135,0.0,1.1,71,0.00,,,0.00,WUHU21623XXSP,2013-01-28 01:23:00,
2013-01-27 20:28:00,14.2,6.6,30.44,SE,146,1.1,3.8,71,0.00,,,0.00,WUHU21623XXSP,2013-01-28 01:28:00,
2013-01-27 20:33:00,14.2,6.6,30.44,SSE,157,0.8,6.0,71,0.00,,,0.00,WUHU21623XXSP,2013-01-28 01:33:00,
2013-01-27 20:38:00,14.2,6.9,30.44,South,180,2.0,6.0,72,0.00,,,0.00,WUHU21623XXSP,2013-01-28 01:38:00,
2013-01-27 20:43:00,14.2,6.9,30.44,SE,142,0.9,3.4,72,0.00,,,0.00,WUHU21623XXSP,2013-01-28 01:43:00,
2013-01-27 20:48:00,14.2,6.9,30.44,SE,135,0.0,3.4,72,0.00,,,0.00,WUHU21623XXSP,2013-01-28 01:48:00,
2013-01-27 20:54:00,14.2,6.9,30.44,SE,135,2.2,2.9,72,0.00,,,0.00,WUHU21623XXSP,2013-01-28 01:54:00,
2013-01-27 21:00:00,14.4,7.1,30.44,SE,136,2.8,4.5,72,0.00,,,0.00,WUHU21623XXSP,2013-01-28 02:00:00,
2013-01-27 21:05:00,14.7,7.4,30.44,SE,126,2.4,4.7,72,0.00,,,0.00,WUHU21623XXSP,2013-01-28 02:05:00,
2013-01-27 21:10:00,14.9,7.5,30.43,SE,142,2.7,5.4,72,0.00,,,0.00,WUHU21623XXSP,2013-01-28 02:10:00,
2013-01-27 21:15:00,15.3,7.9,30.43,SE,135,2.1,5.4,72,0.00,,,0.00,WUHU21623XXSP,2013-01-28 02:15:00,
2013-01-27 21:20:00,15.4,8.0,30.43,SE,131,1.7,4.7,72,0.00,,,0.00,WUHU21623XXSP,2013-01-28 02:20:00,
2013-01-27 21:26:00,15.6,8.2,30.42,SSE,157,0.0,3.4,72,0.00,,,0.00,WUHU21623XXSP,2013-01-28 02:26:00,
2013-01-27 21:31:00,15.8,8.4,30.42,South,180,1.8,3.6,72,0.00,,,0.00,WUHU21623XXSP,2013-01-28 02:31:00,
2013-01-27 21:36:00,16.0,8.6,30.42,SE,135,0.0,3.6,72,0.00,,,0.00,WUHU21623XXSP,2013-01-28 02:36:00,
2013-01-27 21:41:00,16.0,8.6,30.42,SE,130,2.4,6.0,72,0.00,,,0.00,WUHU21623XXSP,2013-01-28 02:41:00,
2013-01-27 21:46:00,16.5,9.1,30.41,SE,143,3.7,7.8,72,0.00,,,0.00,WUHU21623XXSP,2013-01-28 02:46:00,
2013-01-27 21:51:00,16.9,9.5,30.42,SSE,160,1.8,7.8,72,0.00,,,0.00,WUHU21623XXSP,2013-01-28 02:51:00,
2013-01-27 21:56:00,16.9,9.5,30.42,SE,141,2.8,5.1,72,0.00,,,0.00,WUHU21623XXSP,2013-01-28 02:56:00,
2013-01-27 22:01:00,16.9,9.2,30.42,SSE,157,1.1,5.1,71,0.00,,,0.00,WUHU21623XXSP,2013-01-28 03:01:00,
2013-01-27 22:06:00,16.9,9.2,30.42,South,174,3.1,4.3,71,0.00,,,0.00,WUHU21623XXSP,2013-01-28 03:06:00,
2013-01-27 22:11:00,16.9,9.2,30.42,SSE,157,3.6,4.9,71,0.00,,,0.00,WUHU21623XXSP,2013-01-28 03:11:00,
2013-01-27 22:16:00,16.9,9.2,30.41,SSE,151,2.0,4.9,71,0.00,,,0.00,WUHU21623XXSP,2013-01-28 03:16:00,
2013-01-27 22:21:00,16.9,9.2,30.41,SSE,157,4.9,4.9,71,0.00,,,0.00,WUHU21623XXSP,2013-01-28 03:21:00,
2013-01-27 22:26:00,16.9,9.2,30.41,SSE,162,3.2,8.5,71,0.00,,,0.00,WUHU21623XXSP,2013-01-28 03:26:00,
2013-01-27 22:31:00,17.2,9.5,30.41,SSE,157,5.1,8.7,71,0.00,,,0.00,WUHU21623XXSP,2013-01-28 03:31:00,
2013-01-27 22:36:00,17.4,9.6,30.41,SSE,151,2.0,8.7,71,0.00,,,0.00,WUHU21623XXSP,2013-01-28 03:36:00,
2013-01-27 22:41:00,17.6,9.8,30.41,SSE,157,1.8,6.3,71,0.00,,,0.00,WUHU21623XXSP,2013-01-28 03:41:00,
2013-01-27 22:46:00,17.4,9.3,30.41,SSE,157,0.2,4.0,70,0.00,,,0.00,WUHU21623XXSP,2013-01-28 03:46:00,
2013-01-27 22:51:00,17.2,9.1,30.41,SE,144,3.7,7.8,70,0.00,,,0.00,WUHU21623XXSP,2013-01-28 03:51:00,
2013-01-27 22:56:00,17.4,9.3,30.41,SE,135,3.6,7.8,70,0.00,,,0.00,WUHU21623XXSP,2013-01-28 03:56:00,
2013-01-27 23:01:00,17.4,9.3,30.41,SE,135,4.0,5.8,70,0.00,,,0.00,WUHU21623XXSP,2013-01-28 04:01:00,
2013-01-27 23:17:00,18.7,10.6,30.41,SSE,157,3.8,3.8,70,0.00,,,0.00,WUHU21623XXSP,2013-01-28 04:17:00,
2013-01-27 23:22:00,18.9,10.5,30.41,SSE,150,1.9,5.8,69,0.00,,,0.00,WUHU21623XXSP,2013-01-28 04:22:00,
2013-01-27 23:27:00,19.0,10.6,30.40,SSE,150,2.8,6.7,69,0.00,,,0.00,WUHU21623XXSP,2013-01-28 04:27:00,
2013-01-27 23:32:00,19.2,10.7,30.41,South,180,5.8,8.1,69,0.00,,,0.00,WUHU21623XXSP,2013-01-28 04:32:00,
2013-01-27 23:37:00,19.6,11.1,30.41,SSE,147,2.9,8.1,69,0.00,,,0.00,WUHU21623XXSP,2013-01-28 04:37:00,
2013-01-27 23:42:00,19.8,11.3,30.41,SSE,166,3.9,6.5,69,0.00,,,0.00,WUHU21623XXSP,2013-01-28 04:42:00,
2013-01-27 23:47:00,19.9,11.1,30.41,SE,135,4.5,8.5,68,0.00,,,0.00,WUHU21623XXSP,2013-01-28 04:47:00,
2013-01-27 23:52:00,20.1,11.3,30.41,SE,135,5.6,8.5,68,0.00,,,0.00,WUHU21623XXSP,2013-01-28 04:52:00,
2013-01-27 23:57:00,20.3,11.5,30.41,SSE,147,3.3,8.1,68,0.00,,,0.00,WUHU21623XXSP,2013-01-28 04:57:00,